createdAt,value
2018-02-03T00:00:26.254Z,50.20
2018-02-03T00:02:52.840Z,50.20
2018-02-03T00:05:19.455Z,50.40
2018-02-03T00:07:46.068Z,50.10
2018-02-03T00:10:13.423Z,50.00
2018-02-03T00:12:40.042Z,49.90
2018-02-03T00:15:06.609Z,49.20
2018-02-03T00:17:33.970Z,49.80
2018-02-03T00:20:00.571Z,49.70
2018-02-03T00:22:27.211Z,49.70
2018-02-03T00:24:53.804Z,49.90
2018-02-03T00:27:20.453Z,50.10
2018-02-03T00:29:47.023Z,50.00
2018-02-03T00:32:13.631Z,49.90
2018-02-03T00:34:40.206Z,49.90
2018-02-03T00:37:06.885Z,50.10
2018-02-03T00:39:33.438Z,50.30
2018-02-03T00:42:00.007Z,50.30
2018-02-03T00:44:26.577Z,50.10
2018-02-03T00:46:53.890Z,50.10
2018-02-03T00:49:20.501Z,50.10
2018-02-03T00:51:47.061Z,50.10
2018-02-03T00:54:13.698Z,49.60
2018-02-03T00:56:40.343Z,49.70
2018-02-03T00:59:06.983Z,49.10
2018-02-03T01:01:33.557Z,49.50
2018-02-03T01:04:00.166Z,48.70
2018-02-03T01:06:26.779Z,49.10
2018-02-03T01:08:53.401Z,49.20
2018-02-03T01:11:20.029Z,49.40
2018-02-03T01:13:46.653Z,49.70
2018-02-03T01:16:13.270Z,49.40
2018-02-03T01:18:40.591Z,49.10
2018-02-03T01:21:07.949Z,49.10
2018-02-03T01:23:35.338Z,49.30
2018-02-03T01:26:02.658Z,48.90
2018-02-03T01:28:29.234Z,48.80
2018-02-03T01:30:55.892Z,48.60
2018-02-03T01:33:22.540Z,49.80
2018-02-03T01:35:49.178Z,48.90
2018-02-03T01:38:15.790Z,49.40
2018-02-03T01:40:42.443Z,49.30
2018-02-03T01:43:09.007Z,49.40
2018-02-03T01:45:35.636Z,49.20
2018-02-03T01:48:02.230Z,49.30
2018-02-03T01:50:29.218Z,49.20
2018-02-03T01:52:55.778Z,49.20
2018-02-03T01:55:22.354Z,49.70
2018-02-03T01:57:48.948Z,49.10
2018-02-03T02:00:15.562Z,48.80
2018-02-03T02:02:42.150Z,48.50
2018-02-03T02:05:09.497Z,48.30
2018-02-03T02:07:36.867Z,48.80
2018-02-03T02:10:03.602Z,48.70
2018-02-03T02:12:30.182Z,49.40
2018-02-03T02:14:56.774Z,49.50
2018-02-03T02:17:24.122Z,48.70
2018-02-03T02:19:50.681Z,48.70
2018-02-03T02:22:17.346Z,48.90
2018-02-03T02:24:43.933Z,48.70
2018-02-03T02:27:11.254Z,49.10
2018-02-03T02:29:37.905Z,49.00
2018-02-03T02:32:04.552Z,48.80
2018-02-03T02:34:31.137Z,49.10
2018-02-03T02:36:57.755Z,49.20
2018-02-03T02:39:24.333Z,48.10
2018-02-03T02:41:50.900Z,48.10
2018-02-03T02:44:18.237Z,48.40
2018-02-03T02:46:44.894Z,48.40
2018-02-03T02:49:12.218Z,48.50
2018-02-03T02:51:38.907Z,48.50
2018-02-03T02:54:05.521Z,48.60
2018-02-03T02:56:32.129Z,48.10
2018-02-03T02:58:58.725Z,48.10
2018-02-03T03:01:25.327Z,48.10
2018-02-03T03:03:51.917Z,48.00
2018-02-03T03:06:18.506Z,47.90
2018-02-03T03:08:45.841Z,48.00
2018-02-03T03:11:12.473Z,48.00
2018-02-03T03:13:39.038Z,48.00
2018-02-03T03:16:05.629Z,48.00
2018-02-03T03:18:32.315Z,48.20
2018-02-03T03:20:59.614Z,48.60
2018-02-03T03:23:26.201Z,49.30
2018-02-03T03:25:53.547Z,48.80
2018-02-03T03:28:20.874Z,49.10
2018-02-03T03:30:47.442Z,49.10
2018-02-03T03:33:14.744Z,49.70
2018-02-03T03:35:41.417Z,49.70
2018-02-03T03:38:08.042Z,49.50
2018-02-03T03:40:34.657Z,49.20
2018-02-03T03:43:01.213Z,49.00
2018-02-03T03:45:27.781Z,48.80
2018-02-03T03:47:54.378Z,48.70
2018-02-03T03:50:20.989Z,48.80
2018-02-03T03:52:47.616Z,48.70
2018-02-03T03:55:14.288Z,48.70
2018-02-03T03:57:40.874Z,48.50
2018-02-03T04:00:08.205Z,49.00
2018-02-03T04:02:34.785Z,48.90
2018-02-03T04:05:01.363Z,49.40
2018-02-03T04:07:27.986Z,49.80
2018-02-03T04:09:54.678Z,50.30
2018-02-03T04:12:21.245Z,50.40
2018-02-03T04:14:47.825Z,50.30
2018-02-03T04:17:14.428Z,49.50
2018-02-03T04:19:41.082Z,49.50
2018-02-03T04:22:07.646Z,50.00
2018-02-03T04:24:34.248Z,50.20
2018-02-03T04:27:00.837Z,50.60
2018-02-03T04:29:27.439Z,51.00
2018-02-03T04:31:54.026Z,50.80
2018-02-03T04:34:20.640Z,50.50
2018-02-03T04:36:47.992Z,49.90
2018-02-03T04:39:14.638Z,49.90
2018-02-03T04:41:41.921Z,49.10
2018-02-03T04:44:09.521Z,49.30
2018-02-03T04:46:36.098Z,49.30
2018-02-03T04:49:02.725Z,49.40
2018-02-03T04:51:29.330Z,49.40
2018-02-03T04:53:55.960Z,50.00
2018-02-03T04:56:23.315Z,50.10
2018-02-03T04:58:49.901Z,50.10
2018-02-03T05:01:16.542Z,50.00
2018-02-03T05:03:43.157Z,50.20
2018-02-03T05:06:10.490Z,50.10
2018-02-03T05:08:37.103Z,50.00
2018-02-03T05:11:03.673Z,49.90
2018-02-03T05:13:30.977Z,50.20
2018-02-03T05:15:57.566Z,50.00
2018-02-03T05:18:24.866Z,49.90
2018-02-03T05:20:51.452Z,49.80
2018-02-03T05:23:18.813Z,49.60
2018-02-03T05:25:46.123Z,49.60
2018-02-03T05:28:12.701Z,49.60
2018-02-03T05:30:40.017Z,49.70
2018-02-03T05:33:06.941Z,49.70
2018-02-03T05:35:33.530Z,49.60
2018-02-03T05:38:00.876Z,49.40
2018-02-03T05:40:27.486Z,49.40
2018-02-03T05:42:54.158Z,49.50
2018-02-03T05:45:21.550Z,49.80
2018-02-03T05:47:48.523Z,49.70
2018-02-03T05:50:15.114Z,49.10
2018-02-03T05:52:42.454Z,49.00
2018-02-03T05:55:09.089Z,49.00
2018-02-03T05:57:35.906Z,48.80
2018-02-03T06:00:02.553Z,48.50
2018-02-03T06:02:29.903Z,48.70
2018-02-03T06:04:56.509Z,48.70
2018-02-03T06:07:23.086Z,49.00
2018-02-03T06:09:50.435Z,49.20
2018-02-03T06:12:17.019Z,49.10
2018-02-03T06:14:43.634Z,48.90
2018-02-03T06:17:10.954Z,49.20
2018-02-03T06:19:37.595Z,49.10
2018-02-03T06:22:04.210Z,49.40
2018-02-03T06:24:30.821Z,49.20
2018-02-03T06:26:57.419Z,49.50
2018-02-03T06:29:24.109Z,49.40
2018-02-03T06:31:52.616Z,50.10
2018-02-03T06:34:19.961Z,48.90
2018-02-03T06:36:46.589Z,49.00
2018-02-03T06:39:14.308Z,49.10
2018-02-03T06:41:41.013Z,48.90
2018-02-03T06:44:07.592Z,48.60
2018-02-03T06:46:34.222Z,48.30
2018-02-03T06:49:01.701Z,49.00
2018-02-03T06:51:28.314Z,48.90
2018-02-03T06:53:55.014Z,49.00
2018-02-03T06:56:21.636Z,49.20
2018-02-03T06:58:48.249Z,49.00
2018-02-03T07:01:14.842Z,49.30
2018-02-03T07:03:41.517Z,49.00
2018-02-03T07:06:08.110Z,49.30
2018-02-03T07:08:34.785Z,49.30
2018-02-03T07:11:01.387Z,49.20
2018-02-03T07:13:27.966Z,49.40
2018-02-03T07:15:54.613Z,49.50
2018-02-03T07:18:21.190Z,49.60
2018-02-03T07:20:48.783Z,49.60
2018-02-03T07:23:16.143Z,50.10
2018-02-03T07:25:42.764Z,50.00
2018-02-03T07:28:10.118Z,50.50
2018-02-03T07:30:37.502Z,50.60
2018-02-03T07:33:04.146Z,50.60
2018-02-03T07:35:30.702Z,50.70
2018-02-03T07:37:57.294Z,50.60
2018-02-03T07:40:24.720Z,50.30
2018-02-03T07:42:51.311Z,50.30
2018-02-03T07:45:17.964Z,50.30
2018-02-03T07:47:44.603Z,50.60
2018-02-03T07:50:11.256Z,50.30
2018-02-03T07:52:37.911Z,50.40
2018-02-03T07:55:04.630Z,50.80
2018-02-03T07:57:31.517Z,51.00
2018-02-03T07:59:58.118Z,51.00
2018-02-03T08:02:24.685Z,51.00
2018-02-03T08:04:51.331Z,51.20
2018-02-03T08:07:18.810Z,51.30
2018-02-03T08:09:45.699Z,51.20
2018-02-03T08:12:12.318Z,51.30
2018-02-03T08:14:39.823Z,51.40
2018-02-03T08:17:06.574Z,51.90
2018-02-03T08:19:33.910Z,52.90
2018-02-03T08:22:01.261Z,52.70
2018-02-03T08:24:28.722Z,52.50
2018-02-03T08:26:56.117Z,52.60
2018-02-03T08:29:22.772Z,52.60
2018-02-03T08:31:49.640Z,53.10
2018-02-03T08:34:16.976Z,53.10
2018-02-03T08:36:43.563Z,53.00
2018-02-03T08:39:10.898Z,53.40
2018-02-03T08:41:37.469Z,53.30
2018-02-03T08:44:04.127Z,53.30
2018-02-03T08:46:30.768Z,53.80
2018-02-03T08:48:58.084Z,55.00
2018-02-03T08:51:24.714Z,54.90
2018-02-03T08:53:52.097Z,55.10
2018-02-03T08:56:18.854Z,54.90
2018-02-03T08:58:45.446Z,54.90
2018-02-03T09:01:12.063Z,54.00
2018-02-03T09:03:38.654Z,53.90
2018-02-03T09:06:05.338Z,54.20
2018-02-03T09:08:31.937Z,53.60
2018-02-03T09:10:58.526Z,52.00
2018-02-03T09:13:25.990Z,50.80
2018-02-03T09:15:52.589Z,50.70
2018-02-03T09:18:19.266Z,50.60
2018-02-03T09:20:46.596Z,50.10
2018-02-03T09:23:13.972Z,49.90
2018-02-03T09:25:41.357Z,49.90
2018-02-03T09:28:09.623Z,49.80
2018-02-03T09:30:36.218Z,49.40
2018-02-03T09:33:02.833Z,48.50
2018-02-03T09:35:29.532Z,47.40
2018-02-03T09:37:56.111Z,47.10
2018-02-03T09:40:22.744Z,46.90
2018-02-03T09:42:49.378Z,46.20
2018-02-03T09:45:16.255Z,45.70
2018-02-03T09:47:42.845Z,45.60
2018-02-03T09:50:09.462Z,45.40
2018-02-03T09:52:36.121Z,44.70
2018-02-03T09:55:02.763Z,43.40
2018-02-03T09:57:29.345Z,42.10
2018-02-03T09:59:56.727Z,32.30
2018-02-03T10:02:23.369Z,32.20
2018-02-03T10:04:49.975Z,28.40
2018-02-03T10:07:16.654Z,23.00
2018-02-03T10:09:43.274Z,20.10
2018-02-03T10:12:09.887Z,18.20
2018-02-03T10:14:37.205Z,14.60
2018-02-03T10:17:04.595Z,14.40
2018-02-03T10:19:31.980Z,14.30
2018-02-03T10:21:58.725Z,14.30
2018-02-03T10:24:25.335Z,14.70
2018-02-03T10:26:52.954Z,13.90
2018-02-03T10:29:19.592Z,13.20
2018-02-03T10:31:46.986Z,12.80
2018-02-03T10:34:14.357Z,13.40
2018-02-03T10:36:40.975Z,13.50
2018-02-03T10:39:07.697Z,13.80
2018-02-03T10:41:34.317Z,14.30
2018-02-03T10:44:00.949Z,14.60
2018-02-03T10:46:27.583Z,17.40
2018-02-03T10:48:54.258Z,18.50
2018-02-03T10:51:21.602Z,20.30
2018-02-03T10:53:48.204Z,20.30
2018-02-03T10:56:14.832Z,18.50
2018-02-03T10:58:41.408Z,15.80
2018-02-03T11:01:10.673Z,14.20
2018-02-03T11:03:37.265Z,14.10
2018-02-03T11:06:03.903Z,13.40
2018-02-03T11:08:30.553Z,14.50
2018-02-03T11:10:57.197Z,16.40
2018-02-03T11:13:23.796Z,17.00
2018-02-03T11:15:50.437Z,17.30
2018-02-03T11:18:17.273Z,16.50
2018-02-03T11:20:43.868Z,14.30
2018-02-03T11:23:10.490Z,13.80
2018-02-03T11:25:37.136Z,12.60
2018-02-03T11:28:03.758Z,12.10
2018-02-03T11:30:31.100Z,10.70
2018-02-03T11:32:57.782Z,10.70
2018-02-03T11:35:24.453Z,11.10
2018-02-03T11:37:51.900Z,11.10
2018-02-03T11:40:19.536Z,11.00
2018-02-03T11:42:46.125Z,13.40
2018-02-03T11:45:13.501Z,17.30
2018-02-03T11:47:40.142Z,17.30
2018-02-03T11:50:06.737Z,19.10
2018-02-03T11:52:33.334Z,21.20
2018-02-03T11:54:59.994Z,23.80
2018-02-03T11:57:26.591Z,24.50
2018-02-03T11:59:53.218Z,25.80
2018-02-03T12:02:19.895Z,26.70
2018-02-03T12:04:47.586Z,27.10
2018-02-03T12:07:14.203Z,27.10
2018-02-03T12:09:41.170Z,29.90
2018-02-03T12:12:07.906Z,29.00
2018-02-03T12:14:34.562Z,29.70
2018-02-03T12:17:01.950Z,30.10
2018-02-03T12:19:28.531Z,30.00
2018-02-03T12:21:55.451Z,31.40
2018-02-03T12:24:22.058Z,32.50
2018-02-03T12:26:48.694Z,31.50
2018-02-03T12:29:15.315Z,32.30
2018-02-03T12:31:41.910Z,32.20
2018-02-03T12:34:08.536Z,32.90
2018-02-03T12:36:36.058Z,32.50
2018-02-03T12:39:02.771Z,32.50
2018-02-03T12:41:29.353Z,32.80
2018-02-03T12:43:55.954Z,33.30
2018-02-03T12:46:23.300Z,33.90
2018-02-03T12:48:50.031Z,33.90
2018-02-03T12:51:17.139Z,34.70
2018-02-03T12:53:43.924Z,34.50
2018-02-03T12:56:10.831Z,33.20
2018-02-03T12:58:37.438Z,33.10
2018-02-03T13:01:04.189Z,32.50
2018-02-03T13:03:30.860Z,32.50
2018-02-03T13:05:57.450Z,32.50
2018-02-03T13:08:24.065Z,32.40
2018-02-03T13:10:51.432Z,32.30
2018-02-03T13:13:18.108Z,32.30
2018-02-03T13:15:44.717Z,32.80
2018-02-03T13:18:11.383Z,32.20
2018-02-03T13:20:38.038Z,32.20
2018-02-03T13:23:04.626Z,32.70
2018-02-03T13:25:32.008Z,33.30
2018-02-03T13:27:58.594Z,33.30
2018-02-03T13:30:26.013Z,33.70
2018-02-03T13:32:53.474Z,33.70
2018-02-03T13:35:20.142Z,34.10
2018-02-03T13:37:46.799Z,34.50
2018-02-03T13:40:13.436Z,35.00
2018-02-03T13:42:40.092Z,33.70
2018-02-03T13:45:06.759Z,32.90
2018-02-03T13:47:33.864Z,33.40
2018-02-03T13:50:01.190Z,33.90
2018-02-03T13:52:28.579Z,33.50
2018-02-03T13:54:55.233Z,33.40
2018-02-03T13:57:21.830Z,33.80
2018-02-03T13:59:49.203Z,34.40
2018-02-03T14:02:16.890Z,34.40
2018-02-03T14:04:43.549Z,34.00
2018-02-03T14:07:10.710Z,33.80
2018-02-03T14:09:37.357Z,34.50
2018-02-03T14:12:03.956Z,34.10
2018-02-03T14:14:30.657Z,34.50
2018-02-03T14:16:57.553Z,34.70
2018-02-03T14:19:24.248Z,35.80
2018-02-03T14:21:51.616Z,35.40
2018-02-03T14:24:24.395Z,35.60
2018-02-03T14:26:51.197Z,35.30
2018-02-03T14:29:17.870Z,35.30
2018-02-03T14:31:44.533Z,36.30
2018-02-03T14:34:11.163Z,36.20
2018-02-03T14:36:38.390Z,36.40
2018-02-03T14:39:05.006Z,40.60
2018-02-03T14:41:32.369Z,37.90
2018-02-03T14:43:59.189Z,37.90
2018-02-03T14:46:26.551Z,38.20
2018-02-03T14:48:53.141Z,38.60
2018-02-03T14:51:19.765Z,38.40
2018-02-03T14:53:46.365Z,38.10
2018-02-03T14:56:13.018Z,38.30
2018-02-03T14:58:39.629Z,38.10
2018-02-03T15:01:07.325Z,38.80
2018-02-03T15:03:34.960Z,38.10
2018-02-03T15:06:02.667Z,38.90
2018-02-03T15:08:29.799Z,38.70
2018-02-03T15:10:56.410Z,38.00
2018-02-03T15:13:23.207Z,37.00
2018-02-03T15:15:50.883Z,38.30
2018-02-03T15:18:17.530Z,38.20
2018-02-03T15:20:44.117Z,37.70
2018-02-03T15:23:11.334Z,37.60
2018-02-03T15:25:38.711Z,38.20
2018-02-03T15:28:05.311Z,38.10
2018-02-03T15:30:32.255Z,38.40
2018-02-03T15:32:58.861Z,38.30
2018-02-03T15:35:25.444Z,38.70
2018-02-03T15:37:52.089Z,38.40
2018-02-03T15:40:19.467Z,38.00
2018-02-03T15:42:46.817Z,38.40
2018-02-03T15:45:13.430Z,38.20
2018-02-03T15:47:40.093Z,38.70
2018-02-03T15:50:06.754Z,38.80
2018-02-03T15:52:33.426Z,39.20
2018-02-03T15:55:00.109Z,39.20
2018-02-03T15:57:26.803Z,39.30
2018-02-03T15:59:54.228Z,38.10
2018-02-03T16:02:20.831Z,38.00
2018-02-03T16:04:48.266Z,38.50
2018-02-03T16:07:15.613Z,38.60
2018-02-03T16:09:42.218Z,38.60
2018-02-03T16:12:08.874Z,38.90
2018-02-03T16:14:35.585Z,39.50
2018-02-03T16:17:02.212Z,39.30
2018-02-03T16:19:28.795Z,39.90
2018-02-03T16:21:55.435Z,39.50
2018-02-03T16:24:22.034Z,39.60
2018-02-03T16:26:48.675Z,39.60
2018-02-03T16:29:16.134Z,40.50
2018-02-03T16:31:42.810Z,39.80
2018-02-03T16:34:09.675Z,40.40
2018-02-03T16:36:37.005Z,40.40
2018-02-03T16:39:04.363Z,40.30
2018-02-03T16:41:30.970Z,40.30
2018-02-03T16:43:57.751Z,40.70
2018-02-03T16:46:24.437Z,40.30
2018-02-03T16:48:50.991Z,40.30
2018-02-03T16:51:17.699Z,40.70
2018-02-03T16:53:44.290Z,40.90
2018-02-03T16:56:10.955Z,41.50
2018-02-03T16:58:37.566Z,40.70
2018-02-03T17:01:04.179Z,40.90
2018-02-03T17:03:30.784Z,41.60
2018-02-03T17:05:57.476Z,41.30
2018-02-03T17:08:24.854Z,41.60
2018-02-03T17:10:52.229Z,42.00
2018-02-03T17:13:18.797Z,41.90
2018-02-03T17:15:45.373Z,42.20
2018-02-03T17:18:12.044Z,42.30
2018-02-03T17:20:38.707Z,42.80
2018-02-03T17:23:06.178Z,42.70
2018-02-03T17:25:32.869Z,42.70
2018-02-03T17:27:59.605Z,42.90
2018-02-03T17:30:26.141Z,42.60
2018-02-03T17:32:52.735Z,42.70
2018-02-03T17:35:20.111Z,42.20
2018-02-03T17:37:53.609Z,41.50
2018-02-03T17:40:21.059Z,41.90
2018-02-03T17:42:47.695Z,41.80
2018-02-03T17:45:20.310Z,42.10
2018-02-03T17:47:46.954Z,42.10
2018-02-03T17:50:13.604Z,42.30
2018-02-03T17:52:40.265Z,43.40
2018-02-03T17:55:06.892Z,41.90
2018-02-03T17:57:39.717Z,41.80
2018-02-03T18:00:07.102Z,40.90
2018-02-03T18:02:33.800Z,40.80
2018-02-03T18:05:01.147Z,40.90
2018-02-03T18:07:27.912Z,40.90
2018-02-03T18:09:54.517Z,40.70
2018-02-03T18:12:21.165Z,41.10
2018-02-03T18:14:47.755Z,40.30
2018-02-03T18:17:14.418Z,40.50
2018-02-03T18:19:40.998Z,41.40
2018-02-03T18:22:07.605Z,42.10
2018-02-03T18:24:34.230Z,42.40
2018-02-03T18:27:00.802Z,42.90
2018-02-03T18:29:28.175Z,41.40
2018-02-03T18:31:54.735Z,41.40
2018-02-03T18:34:21.554Z,41.90
2018-02-03T18:36:48.234Z,42.00
2018-02-03T18:39:14.840Z,41.90
2018-02-03T18:41:41.451Z,41.50
2018-02-03T18:44:08.962Z,41.90
2018-02-03T18:46:35.563Z,41.80
2018-02-03T18:49:02.201Z,42.00
2018-02-03T18:51:28.810Z,42.20
2018-02-03T18:53:56.238Z,42.70
2018-02-03T18:56:22.921Z,42.60
2018-02-03T18:58:50.250Z,42.80
2018-02-03T19:01:16.886Z,42.70
2018-02-03T19:03:43.487Z,43.30
2018-02-03T19:06:10.106Z,43.60
2018-02-03T19:08:36.766Z,43.40
2018-02-03T19:11:03.403Z,43.60
2018-02-03T19:13:29.983Z,44.30
2018-02-03T19:15:56.607Z,44.40
2018-02-03T19:18:24.010Z,44.00
2018-02-03T19:20:50.637Z,44.00
2018-02-03T19:23:17.301Z,43.40
2018-02-03T19:25:43.904Z,43.40
2018-02-03T19:28:11.253Z,44.40
2018-02-03T19:30:37.839Z,44.40
2018-02-03T19:33:04.510Z,45.00
2018-02-03T19:35:31.094Z,45.20
2018-02-03T19:37:58.228Z,45.40
2018-02-03T19:40:24.927Z,45.60
2018-02-03T19:42:52.285Z,45.30
2018-02-03T19:45:18.862Z,45.30
2018-02-03T19:47:45.533Z,45.10
2018-02-03T19:50:12.126Z,45.40
2018-02-03T19:52:39.443Z,45.10
2018-02-03T19:55:06.056Z,45.00
2018-02-03T19:57:32.697Z,45.30
2018-02-03T19:59:59.361Z,45.10
2018-02-03T20:02:25.953Z,45.00
2018-02-03T20:04:52.595Z,44.00
2018-02-03T20:07:19.197Z,44.00
2018-02-03T20:09:45.777Z,44.00
2018-02-03T20:12:12.419Z,44.40
2018-02-03T20:14:39.974Z,44.70
2018-02-03T20:17:06.593Z,44.50
2018-02-03T20:19:33.237Z,44.90
2018-02-03T20:21:59.888Z,44.90
2018-02-03T20:24:26.509Z,45.50
2018-02-03T20:26:53.134Z,45.70
2018-02-03T20:29:19.718Z,45.00
2018-02-03T20:31:46.338Z,45.50
2018-02-03T20:34:12.929Z,45.10
2018-02-03T20:36:39.543Z,45.20
2018-02-03T20:39:06.209Z,45.20
2018-02-03T20:41:32.815Z,45.40
2018-02-03T20:43:59.454Z,45.50
2018-02-03T20:46:26.719Z,45.60
2018-02-03T20:48:54.050Z,45.70
2018-02-03T20:51:20.693Z,45.70
2018-02-03T20:53:48.030Z,46.60
2018-02-03T20:56:15.471Z,46.50
2018-02-03T20:58:42.096Z,46.20
2018-02-03T21:01:08.671Z,46.60
2018-02-03T21:03:35.325Z,46.90
2018-02-03T21:06:01.977Z,46.60
2018-02-03T21:08:29.352Z,46.00
2018-02-03T21:10:55.987Z,45.90
2018-02-03T21:13:22.599Z,45.80
2018-02-03T21:15:49.997Z,46.20
2018-02-03T21:18:16.683Z,46.20
2018-02-03T21:20:44.083Z,46.60
2018-02-03T21:23:10.679Z,46.50
2018-02-03T21:25:37.337Z,46.60
2018-02-03T21:28:03.927Z,46.50
2018-02-03T21:30:30.507Z,46.90
2018-02-03T21:32:57.126Z,46.50
2018-02-03T21:35:24.475Z,46.60
2018-02-03T21:37:52.482Z,47.50
2018-02-03T21:40:19.240Z,47.20
2018-02-03T21:42:45.917Z,46.90
2018-02-03T21:45:13.293Z,47.60
2018-02-03T21:47:40.721Z,47.40
2018-02-03T21:50:08.126Z,46.40
2018-02-03T21:52:34.788Z,46.30
2018-02-03T21:55:02.439Z,44.30
2018-02-03T21:57:29.117Z,44.20
2018-02-03T21:59:55.811Z,44.40
2018-02-03T22:02:22.417Z,44.90
2018-02-03T22:04:49.041Z,44.80
2018-02-03T22:07:16.434Z,44.90
2018-02-03T22:09:43.422Z,45.00
2018-02-03T22:12:11.321Z,44.70
2018-02-03T22:14:37.937Z,44.40
2018-02-03T22:17:04.618Z,45.10
2018-02-03T22:19:32.085Z,45.10
2018-02-03T22:21:58.708Z,45.00
2018-02-03T22:24:25.318Z,45.50
2018-02-03T22:26:52.734Z,46.40
2018-02-03T22:29:19.306Z,46.30
2018-02-03T22:31:45.921Z,46.40
2018-02-03T22:34:12.553Z,45.80
2018-02-03T22:36:39.150Z,45.50
2018-02-03T22:39:05.746Z,46.00
2018-02-03T22:41:32.438Z,46.30
2018-02-03T22:43:59.050Z,46.60
2018-02-03T22:46:26.430Z,46.40
2018-02-03T22:48:53.022Z,46.40
2018-02-03T22:51:20.382Z,46.50
2018-02-03T22:53:47.099Z,46.50
2018-02-03T22:56:13.725Z,46.70
2018-02-03T22:58:40.295Z,47.10
2018-02-03T23:01:13.010Z,46.90
2018-02-03T23:03:39.600Z,46.30
2018-02-03T23:06:06.977Z,46.60
2018-02-03T23:08:33.653Z,46.40
2018-02-03T23:11:00.296Z,47.90
2018-02-03T23:13:26.918Z,48.00
2018-02-03T23:15:53.543Z,48.00
2018-02-03T23:18:20.986Z,47.50
2018-02-03T23:20:47.587Z,47.60
2018-02-03T23:23:17.067Z,48.00
2018-02-03T23:25:43.850Z,47.00
2018-02-03T23:28:10.488Z,46.70
2018-02-03T23:30:37.820Z,48.30
2018-02-03T23:33:04.405Z,48.10
2018-02-03T23:35:30.964Z,46.30
2018-02-03T23:37:57.579Z,45.70
2018-02-03T23:40:24.268Z,46.20
2018-02-03T23:42:51.662Z,47.20
2018-02-03T23:45:18.306Z,47.20
2018-02-03T23:47:44.942Z,47.30
2018-02-03T23:50:11.562Z,47.20
2018-02-03T23:52:39.155Z,46.80
2018-02-03T23:55:05.810Z,46.70
2018-02-03T23:57:32.400Z,47.00
2018-02-03T23:59:59.158Z,47.90
